Huvudsida
METAR-TAF:

METAR-TAF

Flygplatser :

Pskov, Ryssland

latitud: 57-47-06N, longitud: 028-23-54E, höjd: 47 m

Aktuellt väderrapport

Denna rapport gjordes för 1 timme och 0 minuter sedan, klockan 20:00 UTC
Vind 8 kt från nord/nordväst
Temperatur -8°C
Fuktighet 62%
Tryck 1024 hPa
Sikt: 9000 m

METAR: ULOO 212000Z AUTO 34004MPS 9000 // NCD M08/M14 Q1024 RMK QFE764

Tid: 00:00 (21:00 UTC)

Väderprognos

Denna rapport gjordes för 10 timmar och 2 minuter sedan, klockan 10:58 UTC
Prognos gäller från 21 kl. 12 UTC till 21 kl. 21 UTC
Vind 14 kt från nord/nordväst i byarna ända upp till 25 kt
Sikt: 6000 m
Spridda moln på en höjd av 2000 ft
Blir
från 21 kl. 16 UTC till 21 kl. 18 UTC
Vind 10 kt från nord/nordväst i byarna ända upp till 21 kt

TAF: ULOO 211058Z 2112/2121 34007G13MPS 6000 SCT020 BECMG 2116/2118 34005G11MPS

Aktuella väderrapporter och prognoser från 4000 flygplatser (METAR- och TAF-rapporter).

De tillgängliga stationerna syns som gula och röda prickar på kartan.

För musen över prickarna för att se namnen på stationerna.

Klicka sedan för att få väderrapporter och prognoser.

För att ändra kartan: Klicka på de gröna knapparna med ett svart kors på för att zooma in; den gröna knappen med ett streck på för att zooma ut; eller på de gröna pilarna för angränsande kartor.


METAR-TAF: